createdAt,value
2018-04-11T00:02:25.030Z,5.23
2018-04-11T00:04:53.395Z,4.93
2018-04-11T00:07:20.917Z,13.13
2018-04-11T00:09:48.365Z,5.37
2018-04-11T00:12:15.868Z,7.63
2018-04-11T00:14:44.146Z,5.30
2018-04-11T00:17:11.629Z,5.93
2018-04-11T00:19:39.876Z,4.67
2018-04-11T00:22:07.336Z,11.10
2018-04-11T00:24:34.811Z,3.73
2018-04-11T00:27:03.085Z,4.27
2018-04-11T00:29:30.544Z,4.23
2018-04-11T00:31:58.006Z,4.50
2018-04-11T00:34:25.571Z,4.77
2018-04-11T00:36:53.839Z,4.43
2018-04-11T00:39:21.313Z,6.23
2018-04-11T00:41:49.529Z,4.20
2018-04-11T00:44:16.992Z,4.20
2018-04-11T00:46:44.449Z,5.97
2018-04-11T00:49:11.940Z,4.77
2018-04-11T00:51:39.392Z,4.57
2018-04-11T00:54:06.864Z,4.70
2018-04-11T00:56:34.345Z,5.40
2018-04-11T00:59:01.804Z,5.73
2018-04-11T01:01:30.036Z,5.00
2018-04-11T01:03:57.487Z,7.60
2018-04-11T01:06:25.717Z,6.63
2018-04-11T01:08:53.957Z,6.07
2018-04-11T01:11:21.428Z,5.87
2018-04-11T01:13:49.658Z,6.27
2018-04-11T01:16:17.129Z,5.83
2018-04-11T01:18:44.609Z,6.37
2018-04-11T01:21:12.077Z,7.70
2018-04-11T01:23:39.529Z,6.37
2018-04-11T01:26:06.988Z,7.07
2018-04-11T01:28:34.460Z,6.23
2018-04-11T01:31:01.921Z,6.90
2018-04-11T01:33:30.145Z,6.93
2018-04-11T01:35:57.633Z,7.70
2018-04-11T01:38:25.085Z,8.40
2018-04-11T01:40:52.533Z,9.27
2018-04-11T01:43:19.993Z,9.53
2018-04-11T01:45:47.448Z,7.10
2018-04-11T01:48:14.921Z,10.03
2018-04-11T01:50:45.228Z,7.73
2018-04-11T01:53:12.693Z,8.67
2018-04-11T01:55:40.931Z,15.30
2018-04-11T01:58:08.427Z,9.33
2018-04-11T02:00:35.901Z,12.70
2018-04-11T02:03:03.402Z,7.87
2018-04-11T02:05:31.621Z,8.37
2018-04-11T02:07:59.108Z,11.03
2018-04-11T02:10:26.578Z,8.20
2018-04-11T02:12:54.816Z,9.40
2018-04-11T02:15:22.308Z,12.10
2018-04-11T02:17:49.761Z,15.13
2018-04-11T02:20:18.043Z,11.50
2018-04-11T02:22:45.504Z,9.93
2018-04-11T02:25:12.979Z,7.97
2018-04-11T02:27:41.198Z,9.43
2018-04-11T02:30:08.660Z,7.00
2018-04-11T02:32:36.119Z,6.50
2018-04-11T02:35:03.581Z,7.07
2018-04-11T02:37:31.038Z,7.27
2018-04-11T02:39:58.496Z,7.40
2018-04-11T02:42:25.953Z,8.37
2018-04-11T02:44:53.430Z,8.87
2018-04-11T02:47:20.877Z,6.63
2018-04-11T02:49:48.356Z,7.87
2018-04-11T02:52:15.831Z,9.57
2018-04-11T02:54:44.053Z,11.23
2018-04-11T02:57:11.526Z,7.40
2018-04-11T02:59:38.980Z,8.53
2018-04-11T03:02:06.445Z,8.80
2018-04-11T03:04:34.682Z,9.17
2018-04-11T03:07:02.139Z,9.13
2018-04-11T03:09:29.592Z,8.30
2018-04-11T03:11:57.061Z,8.03
2018-04-11T03:14:24.524Z,6.20
2018-04-11T03:16:52.001Z,6.33
2018-04-11T03:19:19.473Z,7.17
2018-04-11T03:21:47.015Z,8.30
2018-04-11T03:24:14.586Z,8.90
2018-04-11T03:26:42.050Z,8.90
2018-04-11T03:29:09.501Z,9.53
2018-04-11T03:31:36.957Z,8.57
2018-04-11T03:34:04.433Z,8.70
2018-04-11T03:36:31.870Z,8.47
2018-04-11T03:38:59.339Z,13.53
2018-04-11T03:41:26.811Z,8.40
2018-04-11T03:43:54.288Z,12.97
2018-04-11T03:46:21.748Z,9.10
2018-04-11T03:48:49.240Z,11.50
2018-04-11T03:51:16.710Z,9.43
2018-04-11T03:53:44.190Z,9.70
2018-04-11T03:56:11.645Z,11.83
2018-04-11T03:58:39.131Z,11.33
2018-04-11T04:01:06.631Z,9.80
2018-04-11T04:03:34.136Z,11.50
2018-04-11T04:06:01.920Z,10.97
2018-04-11T04:08:29.396Z,13.77
2018-04-11T04:10:57.638Z,14.90
2018-04-11T04:13:36.943Z,13.87
2018-04-11T04:16:16.289Z,19.87
2018-04-11T04:22:07.554Z,14.30
2018-04-11T04:24:35.816Z,14.53
2018-04-11T04:27:03.980Z,12.57
2018-04-11T04:29:31.509Z,15.07
2018-04-11T04:31:59.240Z,11.97
2018-04-11T04:34:27.491Z,13.67
2018-04-11T04:36:57.141Z,15.83
2018-04-11T04:39:26.220Z,12.10
2018-04-11T04:41:53.718Z,13.43
2018-04-11T04:44:21.206Z,17.10
2018-04-11T04:46:48.693Z,21.10
2018-04-11T04:49:16.181Z,9.63
2018-04-11T04:51:43.672Z,14.33
2018-04-11T04:54:11.158Z,11.33
2018-04-11T04:56:38.631Z,16.53
2018-04-11T04:59:06.400Z,10.70
2018-04-11T05:01:34.683Z,16.80
2018-04-11T05:04:02.921Z,10.90
2018-04-11T05:06:30.446Z,12.30
2018-04-11T05:08:57.937Z,13.43
2018-04-11T05:11:25.419Z,11.87
2018-04-11T05:13:52.920Z,10.37
2018-04-11T05:16:20.418Z,13.80
2018-04-11T05:18:47.909Z,11.23
2018-04-11T05:21:16.273Z,12.23
2018-04-11T05:23:43.757Z,12.63
2018-04-11T05:26:11.996Z,11.33
2018-04-11T05:28:40.255Z,11.90
2018-04-11T05:31:07.774Z,11.03
2018-04-11T05:33:35.271Z,10.03
2018-04-11T05:36:02.731Z,10.90
2018-04-11T05:38:30.232Z,10.90
2018-04-11T05:40:58.528Z,10.10
2018-04-11T05:43:26.768Z,12.80
2018-04-11T05:45:54.728Z,10.57
2018-04-11T05:48:22.198Z,8.70
2018-04-11T05:50:52.814Z,9.17
2018-04-11T05:53:20.333Z,8.60
2018-04-11T05:55:49.077Z,8.80
2018-04-11T05:58:16.695Z,9.03
2018-04-11T06:00:44.166Z,8.90
2018-04-11T06:03:11.656Z,7.80
2018-04-11T06:05:39.440Z,9.40
2018-04-11T06:08:06.944Z,11.63
2018-04-11T06:10:34.437Z,8.70
2018-04-11T06:13:01.925Z,8.90
2018-04-11T06:15:30.247Z,9.37
2018-04-11T06:17:57.776Z,7.87
2018-04-11T06:20:25.259Z,7.63
2018-04-11T06:22:52.745Z,7.63
2018-04-11T06:25:20.227Z,8.80
2018-04-11T06:27:47.744Z,11.40
2018-04-11T06:30:15.231Z,8.23
2018-04-11T06:32:42.707Z,7.13
2018-04-11T06:35:10.177Z,9.60
2018-04-11T06:37:38.436Z,13.23
2018-04-11T06:40:05.928Z,6.63
2018-04-11T06:42:33.413Z,9.83
2018-04-11T06:45:00.893Z,8.67
2018-04-11T06:47:28.370Z,10.27
2018-04-11T06:49:55.881Z,9.13
2018-04-11T06:52:23.363Z,7.03
2018-04-11T06:54:50.875Z,6.63
2018-04-11T06:57:19.126Z,6.77
2018-04-11T06:59:46.617Z,10.60
2018-04-11T07:02:14.118Z,11.53
2018-04-11T07:04:41.625Z,14.23
2018-04-11T07:07:09.101Z,14.10
2018-04-11T07:09:36.652Z,8.50
2018-04-11T07:12:04.153Z,7.87
2018-04-11T07:14:31.636Z,7.00
2018-04-11T07:16:59.122Z,6.10
2018-04-11T07:19:26.634Z,8.80
2018-04-11T07:21:54.096Z,8.07
2018-04-11T07:24:21.587Z,7.80
2018-04-11T07:26:49.048Z,7.60
2018-04-11T07:29:17.293Z,8.10
2018-04-11T07:31:44.786Z,6.40
2018-04-11T07:34:13.038Z,7.90
2018-04-11T07:36:40.515Z,7.30
2018-04-11T07:39:08.797Z,9.30
2018-04-11T07:41:37.072Z,8.33
2018-04-11T07:44:04.550Z,9.57
2018-04-11T07:46:32.027Z,8.20
2018-04-11T07:48:59.497Z,7.47
2018-04-11T07:51:26.977Z,8.00
2018-04-11T07:53:54.437Z,5.80
2018-04-11T07:56:21.930Z,6.93
2018-04-11T07:58:50.198Z,8.23
2018-04-11T08:01:17.695Z,7.43
2018-04-11T08:03:45.166Z,7.30
2018-04-11T08:06:12.687Z,7.27
2018-04-11T08:08:40.920Z,5.13
2018-04-11T08:11:08.414Z,6.90
2018-04-11T08:13:36.653Z,7.60
2018-04-11T08:16:04.146Z,6.10
2018-04-11T08:18:32.403Z,6.37
2018-04-11T08:20:59.890Z,8.80
2018-04-11T08:23:28.442Z,25.47
2018-04-11T08:25:55.971Z,17.00
2018-04-11T08:28:23.484Z,12.87
2018-04-11T08:30:51.842Z,22.03
2018-04-11T08:33:19.313Z,27.70
2018-04-11T08:35:46.821Z,14.93
2018-04-11T08:38:14.350Z,10.77
2018-04-11T08:40:42.635Z,7.53
2018-04-11T08:43:10.107Z,8.70
2018-04-11T08:45:37.648Z,7.87
2018-04-11T08:48:05.901Z,6.20
2018-04-11T08:50:33.386Z,7.37
2018-04-11T08:53:01.624Z,9.80
2018-04-11T08:55:29.134Z,11.50
2018-04-11T08:57:56.606Z,6.40
2018-04-11T09:00:24.129Z,5.77
2018-04-11T09:02:52.380Z,6.10
2018-04-11T09:05:19.884Z,5.07
2018-04-11T09:07:47.398Z,5.17
2018-04-11T09:10:14.866Z,8.30
2018-04-11T09:12:42.336Z,7.70
2018-04-11T09:15:09.797Z,6.00
2018-04-11T09:17:37.318Z,7.30
2018-04-11T09:20:04.802Z,6.20
2018-04-11T09:22:32.309Z,6.30
2018-04-11T09:24:59.821Z,7.00
2018-04-11T09:27:27.308Z,8.93
2018-04-11T09:29:55.549Z,8.07
2018-04-11T09:32:23.048Z,7.63
2018-04-11T09:34:51.319Z,12.00
2018-04-11T09:37:19.562Z,7.17
2018-04-11T09:39:47.053Z,12.80
2018-04-11T09:42:15.303Z,3.30
2018-04-11T09:44:42.792Z,3.63
2018-04-11T09:47:11.048Z,5.33
2018-04-11T09:49:38.551Z,5.93
2018-04-11T09:52:06.053Z,4.43
2018-04-11T09:54:33.641Z,4.80
2018-04-11T09:57:01.101Z,6.00
2018-04-11T09:59:29.352Z,8.33
2018-04-11T10:01:56.822Z,4.73
2018-04-11T10:04:24.358Z,5.80
2018-04-11T10:06:51.834Z,5.60
2018-04-11T10:09:19.323Z,4.17
2018-04-11T10:11:47.580Z,6.50
2018-04-11T10:14:15.069Z,5.83
2018-04-11T10:16:42.557Z,5.80
2018-04-11T10:19:10.043Z,8.40
2018-04-11T10:21:37.573Z,7.30
2018-04-11T10:24:05.052Z,8.37
2018-04-11T10:26:32.543Z,7.43
2018-04-11T10:29:00.041Z,7.70
2018-04-11T10:31:27.520Z,6.20
2018-04-11T10:33:55.023Z,5.87
2018-04-11T10:36:23.270Z,7.10
2018-04-11T10:38:50.749Z,6.47
2018-04-11T10:41:18.339Z,9.63
2018-04-11T10:43:45.799Z,8.33
2018-04-11T10:46:13.297Z,5.80
2018-04-11T10:48:40.785Z,5.60
2018-04-11T10:51:08.312Z,6.93
2018-04-11T10:53:35.794Z,9.10
2018-04-11T10:56:03.674Z,7.80
2018-04-11T10:58:31.960Z,10.03
2018-04-11T11:01:00.229Z,8.40
2018-04-11T11:03:27.736Z,7.00
2018-04-11T11:05:55.612Z,8.70
2018-04-11T11:08:23.339Z,8.70
2018-04-11T11:10:50.867Z,11.23
2018-04-11T11:13:18.424Z,7.23
2018-04-11T11:15:47.397Z,5.50
2018-04-11T11:18:14.891Z,6.33
2018-04-11T11:20:50.280Z,6.60
2018-04-11T11:23:17.814Z,9.13
2018-04-11T11:25:46.337Z,7.53
2018-04-11T11:28:14.239Z,7.23
2018-04-11T11:30:41.876Z,7.40
2018-04-11T11:33:09.362Z,6.20
2018-04-11T11:35:37.425Z,6.93
2018-04-11T11:38:04.945Z,6.93
2018-04-11T11:40:32.441Z,4.57
2018-04-11T11:43:00.040Z,7.03
2018-04-11T11:45:28.280Z,6.00
2018-04-11T11:47:55.852Z,5.47
2018-04-11T11:50:23.287Z,4.17
2018-04-11T11:52:51.574Z,7.33
2018-04-11T11:55:19.116Z,7.10
2018-04-11T11:57:46.596Z,5.97
2018-04-11T12:00:14.088Z,6.10
2018-04-11T12:02:42.374Z,4.87
2018-04-11T12:05:10.069Z,4.50
2018-04-11T12:07:37.568Z,5.50
2018-04-11T12:10:05.249Z,6.50
2018-04-11T12:12:33.442Z,5.43
2018-04-11T12:15:01.160Z,4.17
2018-04-11T12:17:29.115Z,3.53
2018-04-11T12:19:57.011Z,3.33
2018-04-11T12:22:24.934Z,9.00
2018-04-11T12:24:52.643Z,6.33
2018-04-11T12:27:20.191Z,4.03
2018-04-11T12:29:47.655Z,3.60
2018-04-11T12:32:15.151Z,3.90
2018-04-11T12:34:42.634Z,3.97
2018-04-11T12:37:10.372Z,4.13
2018-04-11T12:39:37.837Z,3.80
2018-04-11T12:42:05.312Z,9.27
2018-04-11T12:44:32.806Z,4.60
2018-04-11T12:47:00.476Z,5.97
2018-04-11T12:49:27.952Z,4.43
2018-04-11T12:51:55.433Z,4.37
2018-04-11T12:54:23.573Z,4.40
2018-04-11T12:56:51.059Z,4.97
2018-04-11T12:59:19.421Z,5.00
2018-04-11T13:01:46.943Z,6.53
2018-04-11T13:04:14.445Z,5.13
2018-04-11T13:06:41.995Z,4.37
2018-04-11T13:09:09.542Z,5.13
2018-04-11T13:11:37.050Z,11.60
2018-04-11T13:14:04.526Z,5.83
2018-04-11T13:16:32.227Z,4.37
2018-04-11T13:18:59.754Z,4.10
2018-04-11T13:21:27.241Z,3.70
2018-04-11T13:23:54.733Z,4.27
2018-04-11T13:26:22.999Z,4.67
2018-04-11T13:28:50.549Z,7.07
2018-04-11T13:31:18.024Z,5.17
2018-04-11T13:33:46.313Z,5.70
2018-04-11T13:36:13.812Z,5.33
2018-04-11T13:38:41.351Z,7.13
2018-04-11T13:41:08.993Z,5.60
2018-04-11T13:43:37.242Z,5.10
2018-04-11T13:46:05.008Z,5.60
2018-04-11T13:48:32.539Z,5.50
2018-04-11T13:51:00.065Z,6.37
2018-04-11T13:53:27.623Z,7.03
2018-04-11T13:55:55.575Z,7.33
2018-04-11T13:58:23.840Z,12.37
2018-04-11T14:00:52.164Z,24.73
2018-04-11T14:03:19.751Z,26.60
2018-04-11T14:05:47.285Z,23.67
2018-04-11T14:08:14.825Z,26.37
2018-04-11T14:10:42.367Z,17.03
2018-04-11T14:13:09.848Z,14.00
2018-04-11T14:15:38.095Z,10.47
2018-04-11T14:18:05.626Z,7.00
2018-04-11T14:20:33.106Z,8.23
2018-04-11T14:23:00.792Z,11.23
2018-04-11T14:25:29.130Z,14.03
2018-04-11T14:27:56.558Z,11.60
2018-04-11T14:30:24.054Z,8.00
2018-04-11T14:32:54.699Z,4.10
2018-04-11T14:35:22.228Z,8.60
2018-04-11T14:37:52.938Z,8.87
2018-04-11T14:40:25.106Z,6.80
2018-04-11T14:43:04.647Z,7.13
2018-04-11T14:45:36.899Z,5.47
2018-04-11T14:48:19.559Z,4.40
2018-04-11T14:50:55.650Z,4.77
2018-04-11T14:56:15.615Z,5.73
2018-04-11T14:58:47.611Z,16.50
2018-04-11T15:01:25.818Z,4.83
2018-04-11T15:03:56.506Z,6.37
2018-04-11T15:06:34.511Z,6.20
2018-04-11T15:09:11.374Z,6.00
2018-04-11T15:11:50.010Z,6.07
2018-04-11T15:14:22.486Z,6.20
2018-04-11T15:16:57.726Z,5.67
2018-04-11T15:19:34.199Z,6.60
2018-04-11T15:22:02.065Z,6.70
2018-04-11T15:24:43.038Z,5.67
2018-04-11T15:27:25.175Z,5.23
2018-04-11T15:29:57.649Z,6.30
2018-04-11T15:32:28.864Z,5.80
2018-04-11T15:35:12.634Z,6.50
2018-04-11T15:37:52.560Z,8.13
2018-04-11T15:40:27.080Z,8.63
2018-04-11T15:42:59.783Z,6.30
2018-04-11T15:45:30.905Z,7.60
2018-04-11T15:48:03.482Z,4.70
2018-04-11T15:50:39.892Z,10.03
2018-04-11T15:53:15.702Z,5.90
2018-04-11T15:55:54.977Z,4.70
2018-04-11T15:58:25.541Z,7.00
2018-04-11T16:00:53.022Z,8.93
2018-04-11T16:03:20.486Z,8.30
2018-04-11T16:05:47.980Z,7.10
2018-04-11T16:08:15.480Z,7.60
2018-04-11T16:10:43.742Z,7.47
2018-04-11T16:13:11.273Z,9.77
2018-04-11T16:15:38.706Z,6.40
2018-04-11T16:18:06.185Z,7.90
2018-04-11T16:20:33.952Z,7.80
2018-04-11T16:23:01.471Z,22.27
2018-04-11T16:25:28.974Z,8.20
2018-04-11T16:27:56.469Z,12.73
2018-04-11T16:30:24.706Z,11.50
2018-04-11T16:32:52.194Z,10.77
2018-04-11T16:35:19.688Z,12.33
2018-04-11T16:37:47.200Z,12.93
2018-04-11T16:40:14.685Z,15.87
2018-04-11T16:42:42.925Z,11.67
2018-04-11T16:45:10.416Z,13.90
2018-04-11T16:47:38.653Z,18.83
2018-04-11T16:50:06.153Z,12.90
2018-04-11T16:52:33.641Z,10.57
2018-04-11T16:55:01.153Z,8.80
2018-04-11T16:57:28.654Z,7.37
2018-04-11T16:59:57.072Z,11.03
2018-04-11T17:02:24.536Z,10.80
2018-04-11T17:04:52.033Z,13.03
2018-04-11T17:07:20.286Z,26.57
2018-04-11T17:09:47.870Z,25.60
2018-04-11T17:12:15.341Z,21.20
2018-04-11T17:14:42.865Z,12.17
2018-04-11T17:17:10.330Z,11.17
2018-04-11T17:19:37.853Z,11.80
2018-04-11T17:22:17.300Z,10.57
2018-04-11T17:24:56.760Z,10.87
2018-04-11T17:27:36.193Z,9.90
2018-04-11T17:30:15.629Z,9.27
2018-04-11T17:32:43.102Z,11.27
2018-04-11T17:35:10.591Z,10.57
2018-04-11T17:37:38.082Z,8.43
2018-04-11T17:40:05.709Z,9.53
2018-04-11T17:42:34.047Z,10.90
2018-04-11T17:45:01.536Z,9.63
2018-04-11T17:47:29.806Z,9.80
2018-04-11T17:49:57.300Z,11.10
2018-04-11T17:52:24.768Z,9.80
2018-04-11T17:54:52.264Z,13.57
2018-04-11T17:57:19.761Z,10.27
2018-04-11T17:59:48.015Z,14.83
2018-04-11T18:02:15.529Z,12.67
2018-04-11T18:04:43.100Z,13.20
2018-04-11T18:07:10.642Z,13.20
2018-04-11T18:09:38.143Z,11.57
2018-04-11T18:12:05.650Z,17.77
2018-04-11T18:14:33.132Z,10.93
2018-04-11T18:17:00.648Z,15.03
2018-04-11T18:19:29.970Z,12.17
2018-04-11T18:21:57.463Z,16.30
2018-04-11T18:24:25.023Z,14.07
2018-04-11T18:26:52.502Z,23.13
2018-04-11T18:29:19.987Z,14.57
2018-04-11T18:31:48.237Z,23.43
2018-04-11T18:34:15.738Z,21.27
2018-04-11T18:36:43.248Z,24.20
2018-04-11T18:39:10.777Z,28.97
2018-04-11T18:41:38.300Z,32.77
2018-04-11T18:44:06.571Z,33.00
2018-04-11T18:46:34.046Z,25.80
2018-04-11T18:49:01.548Z,28.00
2018-04-11T18:51:29.036Z,28.33
2018-04-11T18:53:56.563Z,31.83
2018-04-11T18:56:24.051Z,38.50
2018-04-11T18:58:51.540Z,27.27
2018-04-11T19:01:19.840Z,32.47
2018-04-11T19:03:47.337Z,35.23
2018-04-11T19:06:14.846Z,31.43
2018-04-11T19:08:43.399Z,35.47
2018-04-11T19:11:10.893Z,39.67
2018-04-11T19:13:38.378Z,45.03
2018-04-11T19:16:05.860Z,40.07
2018-04-11T19:18:33.644Z,41.07
2018-04-11T19:21:01.209Z,44.43
2018-04-11T19:23:28.688Z,60.43
2018-04-11T19:25:56.972Z,62.00
2018-04-11T19:28:24.437Z,55.97
2018-04-11T19:30:52.041Z,59.50
2018-04-11T19:33:20.645Z,59.73
2018-04-11T19:35:48.610Z,59.57
2018-04-11T19:38:16.077Z,72.93
2018-04-11T19:40:44.319Z,48.53
2018-04-11T19:43:14.251Z,80.77
2018-04-11T19:45:41.727Z,65.27
2018-04-11T19:48:09.213Z,69.13
2018-04-11T19:50:36.760Z,62.97
2018-04-11T19:53:05.087Z,62.97
2018-04-11T19:55:32.589Z,91.90
2018-04-11T19:58:00.841Z,97.27
2018-04-11T20:00:28.353Z,101.90
2018-04-11T20:02:55.967Z,133.63
2018-04-11T20:05:24.239Z,105.90
2018-04-11T20:07:51.725Z,125.23
2018-04-11T20:10:19.193Z,125.77
2018-04-11T20:12:47.531Z,119.43
2018-04-11T20:15:15.005Z,105.40
2018-04-11T20:17:43.365Z,105.47
2018-04-11T20:20:10.847Z,144.00
2018-04-11T20:22:38.332Z,114.27
2018-04-11T20:25:05.819Z,112.63
2018-04-11T20:27:33.297Z,120.00
2018-04-11T20:30:00.770Z,134.10
2018-04-11T20:32:28.266Z,130.13
2018-04-11T20:34:56.569Z,120.67
2018-04-11T20:37:24.079Z,141.87
2018-04-11T20:39:51.545Z,148.07
2018-04-11T20:42:19.896Z,150.67
2018-04-11T20:44:47.402Z,156.70
2018-04-11T20:47:15.685Z,146.37
2018-04-11T20:49:43.174Z,151.87
2018-04-11T20:52:10.654Z,159.53
2018-04-11T20:54:38.147Z,167.83
2018-04-11T20:57:06.417Z,136.27
2018-04-11T20:59:34.690Z,143.57
2018-04-11T21:02:02.466Z,197.70
2018-04-11T21:04:30.717Z,195.47
2018-04-11T21:06:58.185Z,174.70
2018-04-11T21:09:25.679Z,160.33
2018-04-11T21:11:53.182Z,138.57
2018-04-11T21:14:20.689Z,127.70
2018-04-11T21:16:48.973Z,122.83
2018-04-11T21:19:16.436Z,103.93
2018-04-11T21:21:43.912Z,141.30
2018-04-11T21:24:11.429Z,107.40
2018-04-11T21:26:39.677Z,110.83
2018-04-11T21:29:07.170Z,126.93
2018-04-11T21:31:35.444Z,111.40
2018-04-11T21:34:03.693Z,117.37
2018-04-11T21:36:31.192Z,142.63
2018-04-11T21:38:59.519Z,154.30
2018-04-11T21:41:27.080Z,126.03
2018-04-11T21:43:54.556Z,171.00
2018-04-11T21:46:22.026Z,173.73
2018-04-11T21:48:49.505Z,176.40
2018-04-11T21:51:17.791Z,175.93
2018-04-11T21:53:45.346Z,181.90
2018-04-11T21:56:13.601Z,167.13
2018-04-11T21:58:41.885Z,173.97
2018-04-11T22:01:10.137Z,174.07
2018-04-11T22:03:37.631Z,193.17
2018-04-11T22:06:05.873Z,173.57
2018-04-11T22:08:33.337Z,182.50
2018-04-11T22:11:01.794Z,196.70
2018-04-11T22:13:29.328Z,207.83
2018-04-11T22:15:56.808Z,186.17
2018-04-11T22:18:24.290Z,172.03
2018-04-11T22:20:51.792Z,161.60
2018-04-11T22:23:20.038Z,205.20
2018-04-11T22:25:47.513Z,178.67
2018-04-11T22:28:15.754Z,205.47
2018-04-11T22:30:43.227Z,265.97
2018-04-11T22:33:10.704Z,241.70
2018-04-11T22:35:38.937Z,265.03
2018-04-11T22:38:06.419Z,198.40
2018-04-11T22:40:33.902Z,160.03
2018-04-11T22:43:01.443Z,152.13
2018-04-11T22:45:28.970Z,175.40
2018-04-11T22:47:56.444Z,144.37
2018-04-11T22:50:24.017Z,140.03
2018-04-11T22:52:51.497Z,131.03
2018-04-11T22:55:19.756Z,159.40
2018-04-11T22:57:47.242Z,170.10
2018-04-11T23:00:14.744Z,182.83
2018-04-11T23:02:42.253Z,163.93
2018-04-11T23:05:10.543Z,206.90
2018-04-11T23:07:38.042Z,160.90
2018-04-11T23:10:05.528Z,160.77
2018-04-11T23:12:33.028Z,144.40
2018-04-11T23:15:00.538Z,160.67
2018-04-11T23:17:28.013Z,168.37
2018-04-11T23:19:55.491Z,207.17
2018-04-11T23:22:23.722Z,149.80
2018-04-11T23:24:52.004Z,172.77
2018-04-11T23:27:19.510Z,198.27
2018-04-11T23:29:46.989Z,211.10
2018-04-11T23:32:14.464Z,202.13
2018-04-11T23:34:41.960Z,210.77
2018-04-11T23:37:09.498Z,242.40
2018-04-11T23:39:36.974Z,216.13
2018-04-11T23:42:04.481Z,212.97
2018-04-11T23:44:32.793Z,193.03
2018-04-11T23:47:00.282Z,223.57
2018-04-11T23:49:28.518Z,209.27
2018-04-11T23:51:55.993Z,205.90
2018-04-11T23:54:23.540Z,173.87
2018-04-11T23:56:51.026Z,181.20
2018-04-11T23:59:18.486Z,210.47
